createdAt,value
2018-09-19T00:04:16.851Z,20.90
2018-09-19T00:09:21.862Z,20.90
2018-09-19T00:14:26.884Z,20.90
2018-09-19T00:19:31.839Z,20.80
2018-09-19T00:24:36.778Z,20.90
2018-09-19T00:29:41.653Z,21.00
2018-09-19T00:34:46.633Z,20.90
2018-09-19T00:39:51.617Z,20.80
2018-09-19T00:44:56.436Z,20.60
2018-09-19T00:50:01.570Z,20.70
2018-09-19T00:55:06.716Z,20.90
2018-09-19T01:00:11.285Z,20.80
2018-09-19T01:05:16.360Z,20.80
2018-09-19T01:10:21.326Z,20.80
2018-09-19T01:15:26.208Z,20.90
2018-09-19T01:20:31.120Z,21.00
2018-09-19T01:25:36.249Z,21.00
2018-09-19T01:30:41.128Z,20.90
2018-09-19T01:35:46.142Z,20.90
2018-09-19T01:40:51.081Z,20.90
2018-09-19T01:45:56.067Z,20.90
2018-09-19T01:51:01.068Z,20.90
2018-09-19T01:56:06.086Z,20.70
2018-09-19T02:01:11.005Z,20.50
2018-09-19T02:06:15.946Z,20.40
2018-09-19T02:11:20.925Z,20.50
2018-09-19T02:16:32.422Z,20.60
2018-09-19T02:21:37.447Z,20.70
2018-09-19T02:26:42.644Z,20.70
2018-09-19T02:31:47.510Z,20.70
2018-09-19T02:36:52.518Z,20.80
2018-09-19T02:41:57.479Z,20.90
2018-09-19T02:47:02.376Z,20.90
2018-09-19T02:52:07.384Z,20.90
2018-09-19T02:57:12.229Z,20.80
2018-09-19T03:02:17.268Z,20.80
2018-09-19T03:07:22.158Z,20.70
2018-09-19T03:12:27.375Z,20.70
2018-09-19T03:17:32.391Z,20.70
2018-09-19T03:22:37.303Z,20.70
2018-09-19T03:27:42.352Z,20.70
2018-09-19T03:32:47.296Z,20.70
2018-09-19T03:37:52.629Z,20.70
2018-09-19T03:42:57.695Z,20.70
2018-09-19T03:48:02.566Z,20.60
2018-09-19T03:53:07.402Z,20.70
2018-09-19T03:58:12.403Z,20.70
2018-09-19T04:03:17.288Z,20.70
2018-09-19T04:08:22.238Z,20.90
2018-09-19T04:13:27.069Z,20.90
2018-09-19T04:18:32.106Z,20.80
2018-09-19T04:23:37.156Z,20.80
2018-09-19T04:28:42.359Z,20.70
2018-09-19T04:33:47.418Z,20.60
2018-09-19T04:38:52.472Z,20.50
2018-09-19T04:43:57.398Z,20.40
2018-09-19T04:49:02.555Z,20.50
2018-09-19T04:54:07.500Z,20.40
2018-09-19T04:59:12.452Z,20.50
2018-09-19T05:04:17.378Z,20.50
2018-09-19T05:09:22.208Z,20.50
2018-09-19T05:14:27.236Z,20.60
2018-09-19T05:19:32.480Z,20.60
2018-09-19T05:24:37.639Z,20.50
2018-09-19T05:29:42.588Z,20.40
2018-09-19T05:34:47.825Z,20.50
2018-09-19T05:39:53.108Z,20.40
2018-09-19T05:44:58.081Z,20.40
2018-09-19T05:50:03.090Z,20.50
2018-09-19T05:55:08.143Z,20.60
2018-09-19T06:00:13.420Z,20.70
2018-09-19T06:05:19.168Z,20.70
2018-09-19T06:10:24.101Z,20.70
2018-09-19T06:15:29.050Z,20.90
2018-09-19T06:20:33.982Z,20.90
2018-09-19T06:25:38.883Z,21.00
2018-09-19T06:30:43.806Z,21.20
2018-09-19T06:35:48.998Z,21.20
2018-09-19T06:40:54.184Z,21.40
2018-09-19T06:45:59.059Z,21.50
2018-09-19T06:51:04.077Z,21.60
2018-09-19T06:56:09.101Z,21.60
2018-09-19T07:01:14.102Z,21.70
2018-09-19T07:06:19.052Z,21.90
2018-09-19T07:11:23.954Z,22.20
2018-09-19T07:16:28.920Z,22.40
2018-09-19T07:21:34.886Z,22.60
2018-09-19T07:26:39.876Z,22.80
2018-09-19T07:31:44.744Z,22.90
2018-09-19T07:36:49.814Z,22.90
2018-09-19T07:41:54.800Z,23.00
2018-09-19T07:46:59.786Z,23.30
2018-09-19T07:52:04.675Z,23.50
2018-09-19T07:57:09.751Z,23.60
2018-09-19T08:02:14.597Z,23.80
2018-09-19T08:07:19.725Z,23.90
2018-09-19T08:12:24.567Z,24.10
2018-09-19T08:17:30.260Z,24.30
2018-09-19T08:22:35.256Z,24.20
2018-09-19T08:27:40.214Z,24.30
2018-09-19T08:32:45.115Z,24.40
2018-09-19T08:37:50.145Z,24.70
2018-09-19T08:42:55.054Z,24.90
2018-09-19T08:47:59.959Z,25.00
2018-09-19T08:53:04.872Z,25.30
2018-09-19T08:58:10.078Z,25.50
2018-09-19T09:03:14.945Z,25.70
2018-09-19T09:08:19.840Z,25.60
2018-09-19T09:13:24.808Z,25.80
2018-09-19T09:18:36.135Z,25.80
2018-09-19T09:23:41.071Z,25.80
2018-09-19T09:28:46.185Z,25.90
2018-09-19T09:33:51.110Z,26.00
2018-09-19T09:38:56.058Z,26.00
2018-09-19T09:44:01.138Z,26.10
2018-09-19T09:49:06.273Z,26.20
2018-09-19T09:54:11.453Z,26.20
2018-09-19T09:59:16.300Z,26.40
2018-09-19T10:04:21.333Z,26.40
2018-09-19T10:09:26.431Z,26.60
2018-09-19T10:14:31.443Z,26.70
2018-09-19T10:19:36.300Z,27.00
2018-09-19T10:24:41.156Z,27.20
2018-09-19T10:29:46.029Z,27.20
2018-09-19T10:34:51.051Z,27.20
2018-09-19T10:39:56.007Z,27.70
2018-09-19T10:45:00.957Z,28.10
2018-09-19T10:50:06.277Z,27.90
2018-09-19T10:55:11.687Z,28.00
2018-09-19T11:00:16.553Z,28.40
2018-09-19T11:05:21.493Z,28.60
2018-09-19T11:10:26.576Z,28.80
2018-09-19T11:15:31.457Z,29.00
2018-09-19T11:20:36.605Z,29.00
2018-09-19T11:25:41.959Z,29.20
2018-09-19T11:30:47.137Z,29.60
2018-09-19T11:35:52.140Z,29.60
2018-09-19T11:40:56.990Z,29.80
2018-09-19T11:46:01.879Z,29.80
2018-09-19T11:51:06.972Z,29.90
2018-09-19T11:56:11.835Z,30.10
2018-09-19T12:01:16.841Z,30.50
2018-09-19T12:06:21.806Z,30.40
2018-09-19T12:11:26.871Z,30.40
2018-09-19T12:16:31.857Z,30.40
2018-09-19T12:21:36.772Z,30.30
2018-09-19T12:26:41.763Z,30.60
2018-09-19T12:31:46.605Z,30.40
2018-09-19T12:36:51.716Z,30.50
2018-09-19T12:41:56.794Z,30.20
2018-09-19T12:47:01.820Z,30.90
2018-09-19T12:52:06.782Z,31.00
2018-09-19T12:57:11.802Z,30.90
2018-09-19T13:02:16.734Z,31.60
2018-09-19T13:07:21.614Z,31.70
2018-09-19T13:12:26.729Z,31.60
2018-09-19T13:17:31.675Z,32.00
2018-09-19T13:22:36.671Z,31.90
2018-09-19T13:27:41.696Z,32.30
2018-09-19T13:32:46.641Z,32.30
2018-09-19T13:37:51.576Z,32.80
2018-09-19T13:42:56.689Z,32.90
2018-09-19T13:48:01.693Z,32.00
2018-09-19T13:53:06.719Z,31.80
2018-09-19T13:58:11.605Z,31.70
2018-09-19T14:03:16.695Z,32.80
2018-09-19T14:08:21.542Z,33.00
2018-09-19T14:13:26.544Z,32.70
2018-09-19T14:18:31.805Z,32.90
2018-09-19T14:23:36.711Z,33.50
2018-09-19T14:28:41.603Z,33.60
2018-09-19T14:33:46.588Z,31.50
2018-09-19T14:38:51.553Z,30.80
2018-09-19T14:43:56.415Z,30.00
2018-09-19T14:49:01.594Z,31.00
2018-09-19T14:54:06.607Z,32.50
2018-09-19T14:59:11.565Z,32.90
2018-09-19T15:04:16.599Z,33.00
2018-09-19T15:09:21.460Z,31.80
2018-09-19T15:14:26.309Z,31.40
2018-09-19T15:19:31.453Z,32.10
2018-09-19T15:24:36.473Z,31.60
2018-09-19T15:29:41.582Z,31.00
2018-09-19T15:34:46.612Z,30.10
2018-09-19T15:39:53.240Z,30.00
2018-09-19T15:44:58.312Z,30.30
2018-09-19T15:50:03.449Z,30.70
2018-09-19T15:55:08.404Z,30.60
2018-09-19T16:00:13.534Z,29.90
2018-09-19T16:05:18.472Z,29.30
2018-09-19T16:10:23.470Z,28.80
2018-09-19T16:15:28.531Z,28.40
2018-09-19T16:20:33.437Z,28.20
2018-09-19T16:25:38.348Z,28.10
2018-09-19T16:30:43.219Z,28.20
2018-09-19T16:35:48.244Z,27.50
2018-09-19T16:40:53.109Z,27.40
2018-09-19T16:51:04.565Z,27.50
2018-09-19T16:56:09.553Z,27.10
2018-09-19T17:01:14.579Z,27.10
2018-09-19T17:06:19.879Z,26.90
2018-09-19T17:11:24.886Z,26.50
2018-09-19T17:16:30.168Z,26.30
2018-09-19T17:21:35.164Z,26.30
2018-09-19T17:26:40.202Z,26.40
2018-09-19T17:31:45.229Z,26.20
2018-09-19T17:36:50.152Z,26.00
2018-09-19T17:41:56.263Z,25.90
2018-09-19T17:47:01.212Z,26.00
2018-09-19T17:52:06.278Z,25.70
2018-09-19T17:57:11.736Z,25.70
2018-09-19T18:02:16.829Z,25.60
2018-09-19T18:07:21.724Z,25.60
2018-09-19T18:12:26.744Z,25.50
2018-09-19T18:17:31.648Z,25.50
2018-09-19T18:22:36.686Z,25.20
2018-09-19T18:27:44.387Z,25.20
2018-09-19T18:32:49.366Z,25.20
2018-09-19T18:37:54.245Z,25.20
2018-09-19T18:42:59.157Z,25.00
2018-09-19T18:48:04.298Z,24.90
2018-09-19T18:53:09.623Z,24.80
2018-09-19T18:58:14.481Z,24.70
2018-09-19T19:03:19.902Z,24.60
2018-09-19T19:08:24.817Z,24.50
2018-09-19T19:13:29.683Z,24.40
2018-09-19T19:18:34.602Z,24.30
2018-09-19T19:23:54.025Z,24.20
2018-09-19T19:28:58.885Z,24.10
2018-09-19T19:34:05.141Z,24.00
2018-09-19T19:39:13.125Z,24.00
2018-09-19T19:44:18.200Z,23.90
2018-09-19T19:49:23.199Z,23.80
2018-09-19T19:54:28.700Z,23.70
2018-09-19T19:59:33.907Z,23.60
2018-09-19T20:04:38.780Z,23.60
2018-09-19T20:09:43.684Z,23.60
2018-09-19T20:14:48.675Z,23.50
2018-09-19T20:19:53.651Z,23.40
2018-09-19T20:24:58.645Z,23.30
2018-09-19T20:30:03.827Z,23.30
2018-09-19T20:35:09.491Z,23.20
2018-09-19T20:40:14.412Z,23.00
2018-09-19T20:45:19.206Z,23.00
2018-09-19T20:50:30.296Z,23.00
2018-09-19T20:55:35.584Z,23.00
2018-09-19T21:00:40.584Z,23.00
2018-09-19T21:05:45.470Z,22.90
2018-09-19T21:10:50.322Z,22.90
2018-09-19T21:15:55.223Z,22.80
2018-09-19T21:21:00.283Z,22.70
2018-09-19T21:26:05.394Z,22.70
2018-09-19T21:31:10.561Z,22.50
2018-09-19T21:36:15.504Z,22.50
2018-09-19T21:41:20.429Z,22.40
2018-09-19T21:46:25.426Z,22.40
2018-09-19T21:51:30.344Z,22.40
2018-09-19T21:56:35.356Z,22.30
2018-09-19T22:01:41.664Z,22.30
2018-09-19T22:06:46.572Z,22.20
2018-09-19T22:11:51.567Z,22.10
2018-09-19T22:16:56.455Z,22.10
2018-09-19T22:22:01.370Z,22.20
2018-09-19T22:27:06.660Z,22.10
2018-09-19T22:32:11.578Z,22.20
2018-09-19T22:37:16.439Z,22.20
2018-09-19T22:42:21.424Z,22.10
2018-09-19T22:47:26.353Z,22.10
2018-09-19T22:52:31.381Z,21.90
2018-09-19T22:57:36.473Z,21.90
2018-09-19T23:02:41.433Z,21.90
2018-09-19T23:07:46.369Z,21.90
2018-09-19T23:12:51.292Z,21.90
2018-09-19T23:17:56.228Z,22.10
2018-09-19T23:23:01.116Z,22.10
2018-09-19T23:28:05.999Z,22.00
2018-09-19T23:33:10.880Z,21.80
2018-09-19T23:38:15.961Z,21.70
2018-09-19T23:43:21.000Z,21.80
2018-09-19T23:48:26.023Z,21.90
2018-09-19T23:53:31.032Z,21.90
2018-09-19T23:58:35.992Z,21.80
